Time;durP1;ratioP1;P1;durP2;ratioP2;P2;SDS_P1;SDS_P2;PMS_P1;PMS_P2;Temp;Humidity;BMP_temperature;BMP_pressure;BME280_temperature;BME280_humidity;BME280_pressure;Samples;Min_cycle;Max_cycle;Signal;HPM_P1;HPM_P2
2022/08/15 00:41:56;;;;;;;10.27;9.18;;;21.00;99.90;;;;;;4801113;29;20136;-79
2022/08/15 01:19:32;;;;;;;10.55;8.68;;;20.60;99.90;;;;;;4721239;30;20122;-78
2022/08/15 01:30:39;;;;;;;11.25;9.45;;;20.70;99.90;;;;;;4743231;30;20097;-79
2022/08/15 02:51:35;;;;;;;13.02;10.07;;;20.70;99.90;;;;;;4890836;29;20083;-78
2022/08/15 03:51:30;;;;;;;18.80;13.20;;;20.10;99.90;;;;;;4763800;30;20050;-79
2022/08/15 04:17:00;;;;;;;15.25;12.98;;;19.60;99.90;;;;;;4942897;23;20059;-80
2022/08/15 04:19:31;;;;;;;19.63;14.27;;;19.50;99.90;;;;;;4909091;29;20052;-79
2022/08/15 04:22:08;;;;;;;17.40;13.35;;;19.50;99.90;;;;;;4905484;29;20051;-80
2022/08/15 04:24:48;;;;;;;;;;;;;;;;;;;;;
2022/08/15 04:27:17;;;;;;;20.30;14.30;;;19.50;99.90;;;;;;4901048;29;20044;-80
2022/08/15 04:29:43;;;;;;;14.38;12.88;;;19.60;99.90;;;;;;4902626;29;20459;-80
2022/08/15 04:32:19;;;;;;;15.30;13.18;;;19.60;99.90;;;;;;4902886;29;20404;-80
2022/08/15 04:34:47;;;;;;;12.60;11.30;;;19.60;99.90;;;;;;4903857;29;20052;-81
2022/08/15 04:37:16;;;;;;;17.45;14.07;;;19.60;99.90;;;;;;4890555;29;20387;-81
2022/08/15 04:39:42;;;;;;;15.75;14.05;;;19.70;99.90;;;;;;4902211;29;20056;-80
2022/08/15 04:42:11;;;;;;;16.50;14.90;;;19.80;99.90;;;;;;4902469;29;20055;-80
2022/08/15 04:44:40;;;;;;;14.00;12.52;;;19.80;99.90;;;;;;4905747;29;20044;-80
2022/08/15 04:47:08;;;;;;;17.70;14.88;;;19.80;99.90;;;;;;4905804;29;20056;-80
2022/08/15 04:49:34;;;;;;;15.77;13.52;;;19.80;99.90;;;;;;4904849;29;20095;-79
2022/08/15 04:52:16;;;;;;;16.23;13.40;;;19.80;99.90;;;;;;4905629;29;20040;-81
2022/08/15 04:54:52;;;;;;;18.35;14.95;;;19.80;99.90;;;;;;4906081;29;20088;-80
2022/08/15 04:57:20;;;;;;;15.98;13.15;;;19.80;99.90;;;;;;4905193;29;20040;-80
2022/08/15 04:59:56;;;;;;;15.60;11.98;;;19.80;99.90;;;;;;4904440;29;20050;-80
2022/08/15 05:03:16;;;;;;;14.65;13.07;;;19.80;99.90;;;;;;4906118;29;20040;-81
2022/08/15 05:06:39;;;;;;;18.98;13.77;;;19.90;99.90;;;;;;4905856;29;20050;-80
2022/08/15 05:09:22;;;;;;;15.68;13.38;;;20.00;99.90;;;;;;4857961;29;20176;-80
2022/08/15 05:12:02;;;;;;;17.08;13.10;;;20.10;99.90;;;;;;4889242;29;20104;-80
2022/08/15 05:14:30;;;;;;;14.90;13.10;;;20.20;99.90;;;;;;4887138;29;20071;-81
2022/08/15 05:16:59;;;;;;;24.83;15.43;;;20.20;99.90;;;;;;4886624;29;20080;-80
2022/08/15 05:19:30;;;;;;;18.13;12.90;;;20.30;99.90;;;;;;4901297;29;20059;-80
2022/08/15 05:21:59;;;;;;;16.15;13.65;;;20.30;99.90;;;;;;4889365;29;20122;-80
2022/08/15 05:24:32;;;;;;;22.08;13.32;;;20.40;99.90;;;;;;4904153;29;20498;-80
2022/08/15 05:27:05;;;;;;;19.92;14.82;;;20.40;99.90;;;;;;4904145;29;20459;-80
2022/08/15 05:29:32;;;;;;;17.98;14.00;;;20.50;99.90;;;;;;4903865;29;20044;-80
2022/08/15 05:32:00;;;;;;;15.15;13.02;;;20.50;99.90;;;;;;4904544;29;20048;-80
2022/08/15 05:34:32;;;;;;;19.17;12.98;;;20.60;99.90;;;;;;4904558;29;20076;-79
2022/08/15 05:37:02;;;;;;;19.02;14.55;;;20.70;99.90;;;;;;4904467;29;20494;-80
2022/08/15 05:39:31;;;;;;;25.52;13.55;;;20.80;99.90;;;;;;4904121;29;20068;-80
2022/08/15 05:42:48;;;;;;;16.35;13.05;;;20.90;99.90;;;;;;4903964;29;20044;-79
2022/08/15 05:45:32;;;;;;;16.98;12.65;;;20.90;99.90;;;;;;4885197;29;20047;-80
2022/08/15 05:51:50;;;;;;;19.70;14.18;;;21.20;99.90;;;;;;4904204;29;20080;-80
2022/08/15 05:54:43;;;;;;;20.17;12.68;;;21.30;99.90;;;;;;4904724;29;20550;-80
2022/08/15 05:58:18;;;;;;;15.75;12.82;;;21.30;99.90;;;;;;4904235;29;20044;-81
2022/08/15 06:01:03;;;;;;;16.45;13.88;;;21.40;99.90;;;;;;4893929;29;20135;-79
2022/08/15 06:03:29;;;;;;;17.13;13.77;;;21.50;99.90;;;;;;4902307;29;20550;-80
2022/08/15 06:05:59;;;;;;;17.52;13.35;;;21.50;99.90;;;;;;4903829;29;20056;-79
2022/08/15 06:08:31;;;;;;;17.38;15.30;;;21.50;99.90;;;;;;4884942;29;20125;-79
2022/08/15 06:11:10;;;;;;;17.52;14.85;;;21.60;99.90;;;;;;4903240;29;20094;-80
2022/08/15 06:13:55;;;;;;;17.10;13.25;;;21.60;99.90;;;;;;4903368;29;20051;-79
2022/08/15 06:16:43;;;;;;;14.50;12.85;;;21.70;99.90;;;;;;4903189;29;20044;-80
2022/08/15 06:19:31;;;;;;;12.68;11.15;;;21.80;99.90;;;;;;4900523;29;20063;-80
2022/08/15 06:22:33;;;;;;;14.60;11.93;;;22.00;99.90;;;;;;4887901;29;20383;-80
2022/08/15 06:25:11;;;;;;;12.63;10.70;;;22.10;99.90;;;;;;4886691;29;20077;-79
2022/08/15 06:28:15;;;;;;;15.23;11.38;;;22.20;99.90;;;;;;4902209;29;20115;-81
2022/08/15 06:31:16;;;;;;;14.32;11.60;;;22.40;99.90;;;;;;4903743;29;20048;-80
2022/08/15 06:34:18;;;;;;;12.38;11.18;;;22.60;99.90;;;;;;4905299;29;20040;-80
2022/08/15 06:36:56;;;;;;;18.50;12.93;;;22.70;99.90;;;;;;4900671;29;20076;-80
2022/08/15 06:39:37;;;;;;;11.60;10.50;;;22.80;99.90;;;;;;4904764;29;20063;-79
2022/08/15 06:42:19;;;;;;;11.53;9.97;;;22.90;99.90;;;;;;4904138;29;20047;-80
2022/08/15 06:45:16;;;;;;;;;;;;;;;;;;;;;
2022/08/15 06:47:53;;;;;;;12.65;10.10;;;23.10;99.90;;;;;;4904235;29;20104;-79
2022/08/15 06:51:27;;;;;;;11.57;10.10;;;23.10;99.90;;;;;;4867618;29;20049;-80
2022/08/15 06:54:20;;;;;;;;;;;;;;;;;;;;;
2022/08/15 07:00:45;;;;;;;11.90;10.15;;;23.50;99.90;;;;;;4885144;29;20056;-81
2022/08/15 07:03:34;;;;;;;12.48;11.18;;;23.60;99.90;;;;;;4893533;29;20518;-80
2022/08/15 07:06:13;;;;;;;12.68;11.38;;;23.60;99.90;;;;;;4899996;29;20079;-80
2022/08/15 07:08:52;;;;;;;10.63;9.50;;;23.60;99.90;;;;;;4904530;29;20058;-80
2022/08/15 07:11:37;;;;;;;13.93;11.70;;;23.60;99.90;;;;;;4902451;29;20056;-79
2022/08/15 07:14:12;;;;;;;11.90;10.70;;;23.70;99.90;;;;;;4896837;29;20051;-80
2022/08/15 07:16:43;;;;;;;12.13;10.95;;;23.70;99.90;;;;;;4902939;29;20048;-81
2022/08/15 07:19:15;;;;;;;13.63;12.25;;;23.70;99.90;;;;;;4906093;29;20048;-81
2022/08/15 07:21:44;;;;;;;13.95;12.07;;;23.70;99.90;;;;;;4905462;29;20051;-80
2022/08/15 07:24:15;;;;;;;12.88;11.68;;;23.80;99.90;;;;;;4906779;29;20048;-80
2022/08/15 07:26:55;;;;;;;13.02;11.65;;;23.80;99.90;;;;;;4895892;29;20127;-79
2022/08/15 07:29:38;;;;;;;13.32;11.32;;;23.90;99.90;;;;;;4905948;29;20055;-81
2022/08/15 07:32:15;;;;;;;11.55;9.45;;;23.90;99.90;;;;;;4900785;29;20112;-80
2022/08/15 07:34:55;;;;;;;11.40;10.07;;;24.00;99.90;;;;;;4891059;29;20044;-80
2022/08/15 07:37:43;;;;;;;11.23;9.90;;;24.10;99.90;;;;;;4890822;29;20103;-80
2022/08/15 07:40:27;;;;;;;11.85;10.63;;;24.20;99.90;;;;;;4888813;29;20045;-80
2022/08/15 07:43:01;;;;;;;10.20;9.30;;;24.30;99.90;;;;;;4889398;29;20047;-80
2022/08/15 07:45:36;;;;;;;10.70;9.70;;;24.30;99.90;;;;;;4888818;29;20038;-81
2022/08/15 07:48:21;;;;;;;10.02;9.05;;;24.40;99.90;;;;;;4902444;29;20036;-80
2022/08/15 07:51:17;;;;;;;11.00;8.95;;;24.40;99.90;;;;;;4907139;29;20510;-80
2022/08/15 07:54:22;;;;;;;9.43;8.55;;;24.60;99.90;;;;;;4883643;29;20150;-81
2022/08/15 07:56:58;;;;;;;8.80;7.90;;;24.80;99.90;;;;;;4902054;29;20048;-79
2022/08/15 07:59:35;;;;;;;8.57;7.78;;;25.00;99.90;;;;;;4905662;29;20050;-80
2022/08/15 08:02:19;;;;;;;9.90;8.55;;;25.30;99.90;;;;;;4905719;29;20044;-82
2022/08/15 08:04:45;;;;;;;9.70;7.78;;;25.40;99.90;;;;;;4894616;29;20135;-81
2022/08/15 08:07:35;;;;;;;8.65;7.82;;;25.70;99.90;;;;;;4900504;29;20048;-81
2022/08/15 08:10:31;;;;;;;8.68;7.82;;;25.80;99.90;;;;;;4899903;29;20052;-82
2022/08/15 08:13:25;;;;;;;16.23;8.05;;;26.20;99.90;;;;;;4907868;29;20051;-81
2022/08/15 08:16:25;;;;;;;8.55;6.85;;;26.50;99.90;;;;;;4900369;29;20047;-81
2022/08/15 08:19:12;;;;;;;7.90;5.95;;;26.90;99.90;;;;;;4906700;29;20063;-81
2022/08/15 08:22:08;;;;;;;7.57;5.80;;;27.10;99.90;;;;;;4890474;29;20040;-81
2022/08/15 08:24:59;;;;;;;11.27;6.45;;;27.20;98.80;;;;;;4893428;29;20304;-82
2022/08/15 08:28:02;;;;;;;7.18;5.88;;;27.50;98.90;;;;;;4915963;29;20039;-81
2022/08/15 08:31:05;;;;;;;6.70;5.20;;;27.70;98.30;;;;;;4900596;29;20044;-82
2022/08/15 08:33:59;;;;;;;;;;;;;;;;;;;;;
2022/08/15 08:36:51;;;;;;;6.65;5.95;;;28.00;97.00;;;;;;4904867;29;20055;-81
2022/08/15 08:39:48;;;;;;;5.55;5.00;;;28.10;96.20;;;;;;4900331;29;20143;-81
2022/08/15 08:42:41;;;;;;;7.75;5.68;;;28.30;95.30;;;;;;4886090;29;20051;-82
2022/08/15 08:45:24;;;;;;;6.38;4.97;;;28.30;95.80;;;;;;4886268;29;20056;-83
2022/08/15 08:48:11;;;;;;;7.32;6.13;;;28.20;95.30;;;;;;4905340;29;20088;-81
2022/08/15 08:51:03;;;;;;;11.85;6.75;;;28.30;94.70;;;;;;4906383;29;20052;-81
2022/08/15 08:54:04;;;;;;;6.10;5.18;;;28.50;93.90;;;;;;4906215;29;20059;-80
2022/08/15 08:56:40;;;;;;;5.55;5.05;;;28.90;93.30;;;;;;4900128;29;20471;-81
2022/08/15 08:59:24;;;;;;;5.70;5.30;;;29.10;92.40;;;;;;4910849;29;20064;-82
2022/08/15 09:02:45;;;;;;;5.72;5.32;;;29.20;92.40;;;;;;4900981;29;20128;-82
2022/08/15 09:05:22;;;;;;;7.85;5.40;;;29.10;91.80;;;;;;4884818;29;20704;-81
2022/08/15 09:07:54;;;;;;;5.57;4.70;;;29.30;91.70;;;;;;4889852;29;20100;-82
2022/08/15 09:10:32;;;;;;;13.55;5.30;;;29.40;90.90;;;;;;4903532;29;20044;-81
2022/08/15 09:16:02;;;;;;;11.20;5.43;;;30.10;88.20;;;;;;4878991;29;20599;-82
2022/08/15 09:18:39;;;;;;;16.27;6.03;;;30.40;85.30;;;;;;4902220;29;20052;-82
2022/08/15 09:21:05;;;;;;;11.23;5.70;;;30.70;85.30;;;;;;4883091;29;20045;-82
2022/08/15 09:23:54;;;;;;;7.63;5.40;;;30.70;83.30;;;;;;4898767;29;20040;-81
2022/08/15 09:26:40;;;;;;;5.07;4.63;;;30.70;82.30;;;;;;4893762;29;20067;-81
2022/08/15 09:29:44;;;;;;;18.02;6.00;;;30.60;80.50;;;;;;4920253;29;20072;-82
2022/08/15 09:33:01;;;;;;;7.72;4.93;;;30.80;82.20;;;;;;4906694;29;20315;-81
2022/08/15 09:36:10;;;;;;;6.97;4.70;;;30.80;82.10;;;;;;4871674;29;20055;-81
2022/08/15 09:38:54;;;;;;;17.50;6.97;;;30.80;81.10;;;;;;4885437;29;20170;-82
2022/08/15 09:41:42;;;;;;;7.15;5.10;;;30.90;80.70;;;;;;4888590;29;20037;-81
2022/08/15 09:44:31;;;;;;;8.85;4.32;;;31.00;81.10;;;;;;4886602;29;20126;-82
2022/08/15 09:47:53;;;;;;;7.90;4.43;;;30.90;80.70;;;;;;4904553;29;20045;-82
2022/08/15 09:50:33;;;;;;;4.95;4.13;;;31.00;79.60;;;;;;4885722;29;20062;-82
2022/08/15 09:53:26;;;;;;;4.70;4.30;;;31.00;78.50;;;;;;4886151;29;20419;-82
2022/08/15 09:56:30;;;;;;;4.60;4.20;;;30.90;77.20;;;;;;4885887;29;20060;-81
2022/08/15 09:59:30;;;;;;;5.43;4.47;;;30.90;78.50;;;;;;4885402;29;20052;-81
2022/08/15 10:02:22;;;;;;;4.93;4.53;;;31.00;79.20;;;;;;4901440;29;20040;-82
2022/08/15 10:05:39;;;;;;;4.68;4.22;;;31.30;79.10;;;;;;4901250;29;20040;-81
2022/08/15 10:08:21;;;;;;;5.32;4.80;;;31.40;76.90;;;;;;4883836;29;20116;-82
2022/08/15 10:11:20;;;;;;;5.20;4.75;;;31.60;77.50;;;;;;4899602;29;20040;-81
2022/08/15 10:13:47;;;;;;;7.38;4.75;;;31.70;75.80;;;;;;4863253;29;20061;-82
2022/08/15 10:54:27;;;;;;;8.75;7.88;;;31.20;74.90;;;;;;4921442;29;20047;-79
2022/08/15 11:05:45;;;;;;;11.88;10.77;;;30.10;76.70;;;;;;4862378;29;20136;-80
2022/08/15 11:08:52;;;;;;;12.70;11.25;;;29.80;78.30;;;;;;4861574;29;20037;-78
2022/08/15 15:01:28;;;;;;;9.05;8.00;;;31.70;74.10;;;;;;4911335;29;20140;-78
2022/08/15 17:13:30;;;;;;;4.90;4.35;;;27.20;80.00;;;;;;4906629;29;20063;-80
2022/08/15 18:22:22;;;;;;;2.80;2.35;;;25.00;88.50;;;;;;5453370;23;20044;-83
2022/08/15 18:25:00;;;;;;;3.17;1.88;;;25.00;87.30;;;;;;4933916;29;20048;-83
2022/08/15 18:27:52;;;;;;;3.78;1.80;;;24.90;86.60;;;;;;4918787;29;20151;-83
2022/08/15 18:31:02;;;;;;;4.97;1.92;;;24.80;86.80;;;;;;4919334;29;20071;-83
2022/08/15 18:34:13;;;;;;;2.90;2.35;;;24.80;86.70;;;;;;4919040;29;20143;-83
2022/08/15 20:39:32;;;;;;;6.45;5.65;;;22.00;99.90;;;;;;4378227;23;20030;-87
2022/08/15 20:42:37;;;;;;;;;;;21.80;99.90;;;;;;4854519;29;20136;-86
2022/08/15 20:45:22;;;;;;;5.30;4.72;;;21.80;99.90;;;;;;4845724;29;19920;-85
2022/08/15 20:48:13;;;;;;;6.00;5.38;;;21.70;99.90;;;;;;4873620;29;20048;-84
2022/08/15 20:50:41;;;;;;;8.90;6.95;;;21.80;99.90;;;;;;4888511;29;20455;-85
2022/08/15 20:53:52;;;;;;;6.95;5.25;;;21.70;99.90;;;;;;5058196;23;20508;-77
2022/08/15 20:56:52;;;;;;;7.43;6.75;;;21.70;99.90;;;;;;4877564;29;20056;-78
2022/08/15 20:59:56;;;;;;;7.05;6.32;;;21.60;99.90;;;;;;4892926;29;20042;-78
2022/08/15 21:03:02;;;;;;;7.18;5.65;;;21.50;99.90;;;;;;4861652;29;20455;-78
2022/08/15 21:07:04;;;;;;;8.10;6.18;;;21.60;99.90;;;;;;4903500;29;20083;-78
2022/08/15 21:10:25;;;;;;;7.28;5.38;;;21.50;99.90;;;;;;4826296;29;20124;-78
2022/08/15 21:13:25;;;;;;;6.30;5.10;;;21.50;99.90;;;;;;4891842;29;20029;-77
2022/08/15 21:16:46;;;;;;;7.65;5.95;;;21.50;99.90;;;;;;4910064;29;20032;-77
2022/08/15 21:19:49;;;;;;;6.88;6.18;;;21.50;99.90;;;;;;4861451;29;20510;-77
2022/08/15 21:22:52;;;;;;;7.07;6.25;;;21.50;99.90;;;;;;4873851;29;20044;-77
2022/08/15 21:25:36;;;;;;;9.40;7.90;;;21.50;99.90;;;;;;4877569;29;20059;-77
2022/08/15 21:28:18;;;;;;;11.23;7.77;;;21.50;99.90;;;;;;4893817;29;20037;-77
2022/08/15 21:30:52;;;;;;;10.15;7.72;;;21.40;99.90;;;;;;4897168;29;20044;-76
2022/08/15 21:33:43;;;;;;;8.52;7.65;;;21.40;99.90;;;;;;4896450;29;20040;-78
2022/08/15 21:36:29;;;;;;;10.48;8.35;;;21.40;99.90;;;;;;4910407;29;20068;-77
2022/08/15 21:39:31;;;;;;;12.30;9.00;;;21.30;99.90;;;;;;4883585;29;20123;-77
2022/08/15 21:42:10;;;;;;;13.05;9.40;;;21.30;99.90;;;;;;4912842;29;20342;-78
2022/08/15 21:45:05;;;;;;;8.82;8.00;;;21.30;99.90;;;;;;4912120;29;20050;-77
2022/08/15 21:47:47;;;;;;;10.45;8.73;;;21.30;99.90;;;;;;4893567;29;20048;-77
2022/08/15 21:50:27;;;;;;;9.73;8.73;;;21.30;99.90;;;;;;4877174;29;20075;-77
2022/08/15 21:52:59;;;;;;;10.27;8.35;;;21.30;99.90;;;;;;4893517;29;20047;-78
2022/08/15 21:55:43;;;;;;;11.57;9.32;;;21.30;99.90;;;;;;4896136;29;20055;-78
2022/08/15 21:58:56;;;;;;;9.83;8.90;;;21.30;99.90;;;;;;4882027;29;20044;-77
2022/08/15 22:02:01;;;;;;;9.75;8.85;;;21.20;99.90;;;;;;4843614;29;20333;-77
2022/08/15 22:04:35;;;;;;;11.35;9.23;;;21.30;99.90;;;;;;4841035;29;20037;-77
2022/08/15 22:07:05;;;;;;;9.70;8.48;;;21.30;99.90;;;;;;4841394;29;20048;-77
2022/08/15 22:09:35;;;;;;;10.35;9.15;;;21.20;99.90;;;;;;4855381;29;20053;-76
2022/08/15 22:12:10;;;;;;;10.45;8.52;;;21.20;99.90;;;;;;4841402;29;20182;-77
2022/08/15 22:14:41;;;;;;;10.13;8.67;;;21.20;99.90;;;;;;4843856;29;20048;-77
2022/08/15 22:17:06;;;;;;;10.55;8.95;;;21.20;99.90;;;;;;4900540;29;20055;-76
2022/08/15 22:19:38;;;;;;;11.10;10.00;;;21.20;99.90;;;;;;4863846;29;20033;-77
2022/08/15 22:22:05;;;;;;;12.43;9.55;;;21.20;99.90;;;;;;4880697;29;20139;-77
2022/08/15 22:24:33;;;;;;;11.48;10.27;;;21.20;99.90;;;;;;4883408;29;20038;-77
2022/08/15 22:27:00;;;;;;;10.90;9.82;;;21.10;99.90;;;;;;4891796;29;20515;-77
2022/08/15 22:29:32;;;;;;;11.75;10.40;;;21.10;99.90;;;;;;4878957;29;20044;-77
2022/08/15 22:32:09;;;;;;;11.05;9.90;;;21.10;99.90;;;;;;4910592;29;20508;-77
2022/08/15 22:34:36;;;;;;;14.10;11.60;;;21.10;99.90;;;;;;4894668;29;20127;-77
2022/08/15 22:37:12;;;;;;;12.75;11.45;;;21.10;99.90;;;;;;4877401;29;20491;-77
2022/08/15 22:39:46;;;;;;;12.15;11.07;;;21.00;99.90;;;;;;4880290;29;20125;-77
2022/08/15 22:42:41;;;;;;;14.27;10.95;;;21.10;99.90;;;;;;4911158;29;20092;-77
2022/08/15 22:45:12;;;;;;;13.57;11.00;;;21.00;99.90;;;;;;4891621;29;20080;-77
2022/08/15 22:47:43;;;;;;;11.68;10.48;;;21.00;99.90;;;;;;4897399;29;20036;-77
2022/08/15 22:50:29;;;;;;;18.30;10.30;;;20.90;99.90;;;;;;4908009;29;20080;-77
2022/08/15 22:52:59;;;;;;;12.02;10.80;;;20.70;99.90;;;;;;4889346;29;20096;-77
2022/08/15 22:55:38;;;;;;;11.70;10.50;;;20.70;99.90;;;;;;4896165;29;20043;-77
2022/08/15 22:58:08;;;;;;;11.27;10.13;;;20.70;99.90;;;;;;4894709;29;20127;-77
2022/08/15 23:00:50;;;;;;;10.80;9.80;;;20.70;99.90;;;;;;4893480;29;20066;-77
2022/08/15 23:03:18;;;;;;;10.73;9.63;;;20.70;99.90;;;;;;4880460;29;20048;-78
2022/08/15 23:06:04;;;;;;;9.85;8.98;;;20.70;99.90;;;;;;4881160;29;20375;-77
2022/08/15 23:08:39;;;;;;;10.77;8.95;;;20.70;99.90;;;;;;4879222;29;20044;-77
2022/08/15 23:11:23;;;;;;;10.88;9.85;;;20.70;99.90;;;;;;4893609;29;20063;-77
2022/08/15 23:13:59;;;;;;;12.07;9.33;;;20.70;99.90;;;;;;4876834;29;20035;-77
2022/08/15 23:16:33;;;;;;;11.45;10.25;;;20.70;99.90;;;;;;4875261;29;20289;-77
2022/08/15 23:19:04;;;;;;;11.35;9.98;;;20.70;99.90;;;;;;4879560;29;20115;-77
2022/08/15 23:21:35;;;;;;;13.82;11.88;;;20.60;99.90;;;;;;4864550;29;20554;-77
2022/08/15 23:24:07;;;;;;;15.38;11.48;;;20.50;99.90;;;;;;4897876;29;20159;-77
2022/08/15 23:26:34;;;;;;;11.25;10.18;;;20.50;99.90;;;;;;4877774;29;20123;-76
2022/08/15 23:29:22;;;;;;;12.20;10.85;;;20.40;99.90;;;;;;4879599;29;20071;-77
2022/08/15 23:32:15;;;;;;;13.23;11.00;;;20.40;99.90;;;;;;4877080;29;20040;-76
2022/08/15 23:34:44;;;;;;;15.88;11.27;;;20.40;99.90;;;;;;4875953;29;20036;-77
2022/08/15 23:37:24;;;;;;;13.65;12.32;;;20.40;99.90;;;;;;4909265;29;20052;-77
2022/08/15 23:40:18;;;;;;;14.30;12.82;;;20.40;99.90;;;;;;4894460;29;20040;-77
2022/08/15 23:42:54;;;;;;;15.48;13.88;;;20.30;99.90;;;;;;4880103;29;20399;-77
2022/08/15 23:45:29;;;;;;;14.40;12.93;;;20.30;99.90;;;;;;4895004;29;20064;-77
2022/08/15 23:47:57;;;;;;;13.80;11.65;;;20.30;99.90;;;;;;4894633;29;20065;-77
2022/08/15 23:50:24;;;;;;;12.70;11.27;;;20.20;99.90;;;;;;4876287;29;20123;-77
2022/08/15 23:52:52;;;;;;;14.40;12.98;;;20.20;99.90;;;;;;4880414;29;20133;-77
2022/08/15 23:55:22;;;;;;;18.42;13.27;;;20.30;99.90;;;;;;4901033;29;20043;-77
2022/08/15 23:57:49;;;;;;;13.55;12.32;;;20.30;99.90;;;;;;4879079;29;20044;-76
